sensor_id;sensor_type;location;lat;lon;timestamp;P1;durP1;ratioP1;P2;durP2;ratioP2
4051;SDS011;2040;50.924;11.604;2023-04-29T00:00:04;8.87;;;5.97;;
4051;SDS011;2040;50.924;11.604;2023-04-29T00:02:34;12.07;;;6.70;;
4051;SDS011;2040;50.924;11.604;2023-04-29T00:05:00;10.50;;;6.43;;
4051;SDS011;2040;50.924;11.604;2023-04-29T00:07:28;11.50;;;7.47;;
4051;SDS011;2040;50.924;11.604;2023-04-29T00:09:56;8.50;;;6.30;;
4051;SDS011;2040;50.924;11.604;2023-04-29T00:12:22;10.30;;;6.57;;
4051;SDS011;2040;50.924;11.604;2023-04-29T00:14:48;10.13;;;6.67;;
4051;SDS011;2040;50.924;11.604;2023-04-29T00:17:13;10.30;;;6.20;;
4051;SDS011;2040;50.924;11.604;2023-04-29T00:19:40;10.80;;;6.50;;
4051;SDS011;2040;50.924;11.604;2023-04-29T00:22:05;9.60;;;7.00;;
4051;SDS011;2040;50.924;11.604;2023-04-29T00:24:31;9.70;;;6.20;;
4051;SDS011;2040;50.924;11.604;2023-04-29T00:26:57;9.10;;;6.20;;
4051;SDS011;2040;50.924;11.604;2023-04-29T00:29:23;9.70;;;5.63;;
4051;SDS011;2040;50.924;11.604;2023-04-29T00:31:48;11.83;;;8.00;;
4051;SDS011;2040;50.924;11.604;2023-04-29T00:34:14;11.70;;;6.50;;
4051;SDS011;2040;50.924;11.604;2023-04-29T00:36:40;10.87;;;6.70;;
4051;SDS011;2040;50.924;11.604;2023-04-29T00:39:06;10.80;;;6.53;;
4051;SDS011;2040;50.924;11.604;2023-04-29T00:41:32;8.87;;;5.57;;
4051;SDS011;2040;50.924;11.604;2023-04-29T00:43:57;10.53;;;5.10;;
4051;SDS011;2040;50.924;11.604;2023-04-29T00:46:23;10.73;;;6.13;;
4051;SDS011;2040;50.924;11.604;2023-04-29T00:48:48;10.33;;;6.43;;
4051;SDS011;2040;50.924;11.604;2023-04-29T00:51:14;9.93;;;6.13;;
4051;SDS011;2040;50.924;11.604;2023-04-29T00:53:41;12.80;;;5.67;;
4051;SDS011;2040;50.924;11.604;2023-04-29T00:56:07;7.60;;;5.63;;
4051;SDS011;2040;50.924;11.604;2023-04-29T00:58:34;9.20;;;5.80;;
4051;SDS011;2040;50.924;11.604;2023-04-29T01:01:00;7.23;;;5.77;;
4051;SDS011;2040;50.924;11.604;2023-04-29T01:03:27;8.20;;;5.50;;
4051;SDS011;2040;50.924;11.604;2023-04-29T01:06:05;7.73;;;5.40;;
4051;SDS011;2040;50.924;11.604;2023-04-29T01:11:39;7.50;;;5.10;;
4051;SDS011;2040;50.924;11.604;2023-04-29T01:14:13;7.93;;;5.00;;
4051;SDS011;2040;50.924;11.604;2023-04-29T01:16:42;8.50;;;5.30;;
4051;SDS011;2040;50.924;11.604;2023-04-29T01:19:15;8.10;;;5.07;;
4051;SDS011;2040;50.924;11.604;2023-04-29T01:21:51;8.90;;;5.90;;
4051;SDS011;2040;50.924;11.604;2023-04-29T01:24:17;8.80;;;5.00;;
4051;SDS011;2040;50.924;11.604;2023-04-29T01:26:45;9.33;;;5.70;;
4051;SDS011;2040;50.924;11.604;2023-04-29T01:29:25;10.97;;;6.60;;
4051;SDS011;2040;50.924;11.604;2023-04-29T01:32:05;8.53;;;5.40;;
4051;SDS011;2040;50.924;11.604;2023-04-29T01:34:43;9.00;;;6.87;;
4051;SDS011;2040;50.924;11.604;2023-04-29T01:37:37;11.03;;;6.07;;
4051;SDS011;2040;50.924;11.604;2023-04-29T01:40:18;10.60;;;5.70;;
4051;SDS011;2040;50.924;11.604;2023-04-29T01:45:25;6.20;;;4.57;;
4051;SDS011;2040;50.924;11.604;2023-04-29T01:47:52;10.47;;;6.17;;
4051;SDS011;2040;50.924;11.604;2023-04-29T01:50:20;8.07;;;6.07;;
4051;SDS011;2040;50.924;11.604;2023-04-29T01:52:46;7.77;;;5.13;;
4051;SDS011;2040;50.924;11.604;2023-04-29T01:55:11;7.50;;;4.80;;
4051;SDS011;2040;50.924;11.604;2023-04-29T01:57:37;8.90;;;5.33;;
4051;SDS011;2040;50.924;11.604;2023-04-29T02:00:03;6.00;;;4.20;;
4051;SDS011;2040;50.924;11.604;2023-04-29T02:02:28;7.70;;;4.90;;
4051;SDS011;2040;50.924;11.604;2023-04-29T02:04:54;7.90;;;4.63;;
4051;SDS011;2040;50.924;11.604;2023-04-29T02:07:20;7.93;;;5.40;;
4051;SDS011;2040;50.924;11.604;2023-04-29T02:09:45;6.73;;;4.77;;
4051;SDS011;2040;50.924;11.604;2023-04-29T02:12:11;6.53;;;4.73;;
4051;SDS011;2040;50.924;11.604;2023-04-29T02:14:36;7.10;;;5.50;;
4051;SDS011;2040;50.924;11.604;2023-04-29T02:17:02;6.60;;;4.70;;
4051;SDS011;2040;50.924;11.604;2023-04-29T02:19:28;9.13;;;5.17;;
4051;SDS011;2040;50.924;11.604;2023-04-29T02:21:53;7.83;;;5.37;;
4051;SDS011;2040;50.924;11.604;2023-04-29T02:24:19;7.30;;;5.37;;
4051;SDS011;2040;50.924;11.604;2023-04-29T02:26:44;9.00;;;5.50;;
4051;SDS011;2040;50.924;11.604;2023-04-29T02:29:10;9.00;;;5.10;;
4051;SDS011;2040;50.924;11.604;2023-04-29T02:31:36;9.53;;;5.33;;
4051;SDS011;2040;50.924;11.604;2023-04-29T02:34:02;12.20;;;6.33;;
4051;SDS011;2040;50.924;11.604;2023-04-29T02:36:28;9.20;;;5.60;;
4051;SDS011;2040;50.924;11.604;2023-04-29T02:38:54;11.20;;;5.50;;
4051;SDS011;2040;50.924;11.604;2023-04-29T02:41:20;6.27;;;5.03;;
4051;SDS011;2040;50.924;11.604;2023-04-29T02:43:46;12.13;;;6.63;;
4051;SDS011;2040;50.924;11.604;2023-04-29T02:46:13;7.50;;;5.37;;
4051;SDS011;2040;50.924;11.604;2023-04-29T02:48:38;7.97;;;5.30;;
4051;SDS011;2040;50.924;11.604;2023-04-29T02:51:04;7.33;;;4.73;;
4051;SDS011;2040;50.924;11.604;2023-04-29T02:53:30;7.20;;;4.70;;
4051;SDS011;2040;50.924;11.604;2023-04-29T02:55:56;8.17;;;5.30;;
4051;SDS011;2040;50.924;11.604;2023-04-29T02:58:22;7.30;;;4.93;;
4051;SDS011;2040;50.924;11.604;2023-04-29T03:00:47;7.83;;;4.70;;
4051;SDS011;2040;50.924;11.604;2023-04-29T03:03:13;8.23;;;4.53;;
4051;SDS011;2040;50.924;11.604;2023-04-29T03:05:39;7.03;;;4.90;;
4051;SDS011;2040;50.924;11.604;2023-04-29T03:08:05;9.43;;;5.50;;
4051;SDS011;2040;50.924;11.604;2023-04-29T03:10:31;7.80;;;5.30;;
4051;SDS011;2040;50.924;11.604;2023-04-29T03:12:57;7.63;;;5.53;;
4051;SDS011;2040;50.924;11.604;2023-04-29T03:15:22;7.10;;;5.07;;
4051;SDS011;2040;50.924;11.604;2023-04-29T03:17:48;7.97;;;4.73;;
4051;SDS011;2040;50.924;11.604;2023-04-29T03:20:13;8.60;;;5.80;;
4051;SDS011;2040;50.924;11.604;2023-04-29T03:22:39;7.60;;;4.77;;
4051;SDS011;2040;50.924;11.604;2023-04-29T03:25:05;6.73;;;4.50;;
4051;SDS011;2040;50.924;11.604;2023-04-29T03:27:31;7.57;;;4.90;;
4051;SDS011;2040;50.924;11.604;2023-04-29T03:29:56;7.23;;;4.30;;
4051;SDS011;2040;50.924;11.604;2023-04-29T03:32:22;5.23;;;4.07;;
4051;SDS011;2040;50.924;11.604;2023-04-29T03:34:48;6.20;;;4.07;;
4051;SDS011;2040;50.924;11.604;2023-04-29T03:37:13;6.37;;;4.20;;
4051;SDS011;2040;50.924;11.604;2023-04-29T03:39:40;7.10;;;4.20;;
4051;SDS011;2040;50.924;11.604;2023-04-29T03:42:06;8.97;;;4.67;;
4051;SDS011;2040;50.924;11.604;2023-04-29T03:44:31;7.80;;;5.00;;
4051;SDS011;2040;50.924;11.604;2023-04-29T03:46:57;7.60;;;4.80;;
4051;SDS011;2040;50.924;11.604;2023-04-29T03:49:23;6.90;;;4.30;;
4051;SDS011;2040;50.924;11.604;2023-04-29T03:51:48;7.73;;;4.70;;
4051;SDS011;2040;50.924;11.604;2023-04-29T03:54:14;11.70;;;5.30;;
4051;SDS011;2040;50.924;11.604;2023-04-29T03:56:40;7.00;;;4.73;;
4051;SDS011;2040;50.924;11.604;2023-04-29T03:59:05;7.30;;;5.30;;
4051;SDS011;2040;50.924;11.604;2023-04-29T04:01:31;9.43;;;5.17;;
4051;SDS011;2040;50.924;11.604;2023-04-29T04:03:57;8.80;;;4.77;;
4051;SDS011;2040;50.924;11.604;2023-04-29T04:06:22;9.00;;;5.20;;
4051;SDS011;2040;50.924;11.604;2023-04-29T04:08:48;7.03;;;4.50;;
4051;SDS011;2040;50.924;11.604;2023-04-29T04:11:13;8.43;;;5.13;;
4051;SDS011;2040;50.924;11.604;2023-04-29T04:13:42;9.63;;;5.33;;
4051;SDS011;2040;50.924;11.604;2023-04-29T04:16:08;7.10;;;4.80;;
4051;SDS011;2040;50.924;11.604;2023-04-29T04:18:35;8.23;;;5.13;;
4051;SDS011;2040;50.924;11.604;2023-04-29T04:21:19;7.80;;;4.40;;
4051;SDS011;2040;50.924;11.604;2023-04-29T04:23:45;7.20;;;4.30;;
4051;SDS011;2040;50.924;11.604;2023-04-29T04:26:10;12.13;;;4.70;;
4051;SDS011;2040;50.924;11.604;2023-04-29T04:28:36;6.87;;;4.23;;
4051;SDS011;2040;50.924;11.604;2023-04-29T04:31:01;8.93;;;4.20;;
4051;SDS011;2040;50.924;11.604;2023-04-29T04:33:27;6.70;;;4.27;;
4051;SDS011;2040;50.924;11.604;2023-04-29T04:35:53;10.90;;;4.57;;
4051;SDS011;2040;50.924;11.604;2023-04-29T04:38:19;7.87;;;4.70;;
4051;SDS011;2040;50.924;11.604;2023-04-29T04:40:44;10.73;;;5.20;;
4051;SDS011;2040;50.924;11.604;2023-04-29T04:43:10;8.17;;;4.63;;
4051;SDS011;2040;50.924;11.604;2023-04-29T04:45:36;8.00;;;4.70;;
4051;SDS011;2040;50.924;11.604;2023-04-29T04:48:02;8.67;;;5.17;;
4051;SDS011;2040;50.924;11.604;2023-04-29T04:50:28;9.90;;;5.37;;
4051;SDS011;2040;50.924;11.604;2023-04-29T04:52:54;10.17;;;5.50;;
4051;SDS011;2040;50.924;11.604;2023-04-29T04:55:20;8.10;;;5.03;;
4051;SDS011;2040;50.924;11.604;2023-04-29T04:57:46;11.73;;;6.40;;
4051;SDS011;2040;50.924;11.604;2023-04-29T05:00:12;11.03;;;5.20;;
4051;SDS011;2040;50.924;11.604;2023-04-29T05:02:38;9.53;;;4.73;;
4051;SDS011;2040;50.924;11.604;2023-04-29T05:05:03;8.17;;;5.00;;
4051;SDS011;2040;50.924;11.604;2023-04-29T05:07:29;11.03;;;6.10;;
4051;SDS011;2040;50.924;11.604;2023-04-29T05:09:55;9.40;;;5.23;;
4051;SDS011;2040;50.924;11.604;2023-04-29T05:12:20;8.30;;;5.00;;
4051;SDS011;2040;50.924;11.604;2023-04-29T05:14:47;9.37;;;5.13;;
4051;SDS011;2040;50.924;11.604;2023-04-29T05:17:17;7.57;;;4.50;;
4051;SDS011;2040;50.924;11.604;2023-04-29T05:19:42;8.83;;;4.80;;
4051;SDS011;2040;50.924;11.604;2023-04-29T05:22:08;8.47;;;4.07;;
4051;SDS011;2040;50.924;11.604;2023-04-29T05:24:33;7.07;;;4.70;;
4051;SDS011;2040;50.924;11.604;2023-04-29T05:26:59;11.57;;;4.23;;
4051;SDS011;2040;50.924;11.604;2023-04-29T05:29:25;6.80;;;4.07;;
4051;SDS011;2040;50.924;11.604;2023-04-29T05:31:51;7.30;;;4.30;;
4051;SDS011;2040;50.924;11.604;2023-04-29T05:34:17;5.60;;;3.97;;
4051;SDS011;2040;50.924;11.604;2023-04-29T05:36:42;6.70;;;3.97;;
4051;SDS011;2040;50.924;11.604;2023-04-29T05:39:08;7.10;;;4.00;;
4051;SDS011;2040;50.924;11.604;2023-04-29T05:41:33;6.97;;;4.50;;
4051;SDS011;2040;50.924;11.604;2023-04-29T05:43:59;6.87;;;3.70;;
4051;SDS011;2040;50.924;11.604;2023-04-29T05:46:25;6.23;;;4.13;;
4051;SDS011;2040;50.924;11.604;2023-04-29T05:48:51;7.80;;;4.10;;
4051;SDS011;2040;50.924;11.604;2023-04-29T05:51:17;6.77;;;3.60;;
4051;SDS011;2040;50.924;11.604;2023-04-29T05:53:44;7.60;;;4.63;;
4051;SDS011;2040;50.924;11.604;2023-04-29T05:56:09;7.03;;;4.40;;
4051;SDS011;2040;50.924;11.604;2023-04-29T05:58:35;6.77;;;3.97;;
4051;SDS011;2040;50.924;11.604;2023-04-29T06:01:01;9.23;;;4.10;;
4051;SDS011;2040;50.924;11.604;2023-04-29T06:03:27;5.30;;;3.90;;
4051;SDS011;2040;50.924;11.604;2023-04-29T06:05:53;11.63;;;4.27;;
4051;SDS011;2040;50.924;11.604;2023-04-29T06:08:19;7.00;;;3.83;;
4051;SDS011;2040;50.924;11.604;2023-04-29T06:10:45;8.33;;;4.10;;
4051;SDS011;2040;50.924;11.604;2023-04-29T06:13:11;7.63;;;4.30;;
4051;SDS011;2040;50.924;11.604;2023-04-29T06:15:36;8.93;;;4.80;;
4051;SDS011;2040;50.924;11.604;2023-04-29T06:18:02;10.43;;;5.33;;
4051;SDS011;2040;50.924;11.604;2023-04-29T06:20:28;9.80;;;4.53;;
4051;SDS011;2040;50.924;11.604;2023-04-29T06:22:53;7.53;;;4.47;;
4051;SDS011;2040;50.924;11.604;2023-04-29T06:25:19;8.47;;;4.67;;
4051;SDS011;2040;50.924;11.604;2023-04-29T06:27:45;6.10;;;4.10;;
4051;SDS011;2040;50.924;11.604;2023-04-29T06:30:11;7.60;;;5.70;;
4051;SDS011;2040;50.924;11.604;2023-04-29T06:32:37;9.37;;;4.60;;
4051;SDS011;2040;50.924;11.604;2023-04-29T06:35:03;8.50;;;5.40;;
4051;SDS011;2040;50.924;11.604;2023-04-29T06:37:29;7.90;;;4.80;;
4051;SDS011;2040;50.924;11.604;2023-04-29T06:39:55;9.87;;;5.47;;
4051;SDS011;2040;50.924;11.604;2023-04-29T06:42:20;9.07;;;5.30;;
4051;SDS011;2040;50.924;11.604;2023-04-29T06:44:46;7.77;;;4.70;;
4051;SDS011;2040;50.924;11.604;2023-04-29T06:47:11;10.40;;;5.43;;
4051;SDS011;2040;50.924;11.604;2023-04-29T06:49:37;7.80;;;4.67;;
4051;SDS011;2040;50.924;11.604;2023-04-29T06:52:03;8.07;;;5.23;;
4051;SDS011;2040;50.924;11.604;2023-04-29T06:54:29;8.97;;;5.20;;
4051;SDS011;2040;50.924;11.604;2023-04-29T06:56:54;11.17;;;5.93;;
4051;SDS011;2040;50.924;11.604;2023-04-29T06:59:20;7.50;;;4.60;;
4051;SDS011;2040;50.924;11.604;2023-04-29T07:01:46;8.47;;;5.00;;
4051;SDS011;2040;50.924;11.604;2023-04-29T07:04:11;8.27;;;5.30;;
4051;SDS011;2040;50.924;11.604;2023-04-29T07:06:37;9.87;;;5.40;;
4051;SDS011;2040;50.924;11.604;2023-04-29T07:09:02;9.17;;;5.10;;
4051;SDS011;2040;50.924;11.604;2023-04-29T07:11:28;8.03;;;4.50;;
4051;SDS011;2040;50.924;11.604;2023-04-29T07:13:54;10.87;;;5.80;;
4051;SDS011;2040;50.924;11.604;2023-04-29T07:16:19;7.57;;;4.00;;
4051;SDS011;2040;50.924;11.604;2023-04-29T07:18:48;10.70;;;4.60;;
4051;SDS011;2040;50.924;11.604;2023-04-29T07:21:14;7.10;;;4.10;;
4051;SDS011;2040;50.924;11.604;2023-04-29T07:23:40;7.10;;;3.93;;
4051;SDS011;2040;50.924;11.604;2023-04-29T07:26:09;5.47;;;3.53;;
4051;SDS011;2040;50.924;11.604;2023-04-29T07:28:40;5.17;;;3.00;;
4051;SDS011;2040;50.924;11.604;2023-04-29T07:31:06;6.43;;;3.73;;
4051;SDS011;2040;50.924;11.604;2023-04-29T07:33:32;3.93;;;2.90;;
4051;SDS011;2040;50.924;11.604;2023-04-29T07:35:58;4.50;;;2.73;;
4051;SDS011;2040;50.924;11.604;2023-04-29T07:38:24;7.30;;;3.80;;
4051;SDS011;2040;50.924;11.604;2023-04-29T07:40:50;6.07;;;3.40;;
4051;SDS011;2040;50.924;11.604;2023-04-29T07:43:15;7.90;;;4.43;;
4051;SDS011;2040;50.924;11.604;2023-04-29T07:45:41;6.30;;;3.63;;
4051;SDS011;2040;50.924;11.604;2023-04-29T07:48:07;6.87;;;4.13;;
4051;SDS011;2040;50.924;11.604;2023-04-29T07:50:35;6.13;;;4.00;;
4051;SDS011;2040;50.924;11.604;2023-04-29T07:53:01;6.80;;;3.47;;
4051;SDS011;2040;50.924;11.604;2023-04-29T07:55:28;8.00;;;4.80;;
4051;SDS011;2040;50.924;11.604;2023-04-29T07:57:54;9.53;;;4.00;;
4051;SDS011;2040;50.924;11.604;2023-04-29T08:00:21;7.87;;;4.77;;
4051;SDS011;2040;50.924;11.604;2023-04-29T08:02:50;7.00;;;4.17;;
4051;SDS011;2040;50.924;11.604;2023-04-29T08:05:16;7.07;;;4.40;;
4051;SDS011;2040;50.924;11.604;2023-04-29T08:07:42;5.53;;;3.83;;
4051;SDS011;2040;50.924;11.604;2023-04-29T08:10:08;8.93;;;5.07;;
4051;SDS011;2040;50.924;11.604;2023-04-29T08:12:34;7.40;;;4.53;;
4051;SDS011;2040;50.924;11.604;2023-04-29T08:15:00;7.23;;;4.67;;
4051;SDS011;2040;50.924;11.604;2023-04-29T08:17:25;9.07;;;4.60;;
4051;SDS011;2040;50.924;11.604;2023-04-29T08:19:51;9.17;;;5.13;;
4051;SDS011;2040;50.924;11.604;2023-04-29T08:22:16;8.23;;;5.10;;
4051;SDS011;2040;50.924;11.604;2023-04-29T08:24:42;6.37;;;3.70;;
4051;SDS011;2040;50.924;11.604;2023-04-29T08:27:09;8.00;;;3.60;;
4051;SDS011;2040;50.924;11.604;2023-04-29T08:29:34;5.60;;;3.93;;
4051;SDS011;2040;50.924;11.604;2023-04-29T08:32:01;10.27;;;3.47;;
4051;SDS011;2040;50.924;11.604;2023-04-29T08:34:26;7.37;;;3.67;;
4051;SDS011;2040;50.924;11.604;2023-04-29T08:36:52;5.47;;;3.40;;
4051;SDS011;2040;50.924;11.604;2023-04-29T08:39:17;4.63;;;2.47;;
4051;SDS011;2040;50.924;11.604;2023-04-29T08:41:43;4.93;;;2.90;;
4051;SDS011;2040;50.924;11.604;2023-04-29T08:44:13;4.80;;;2.97;;
4051;SDS011;2040;50.924;11.604;2023-04-29T08:46:41;5.60;;;3.27;;
4051;SDS011;2040;50.924;11.604;2023-04-29T08:49:10;4.80;;;2.80;;
4051;SDS011;2040;50.924;11.604;2023-04-29T08:51:36;4.10;;;2.63;;
4051;SDS011;2040;50.924;11.604;2023-04-29T08:54:02;7.20;;;3.40;;
4051;SDS011;2040;50.924;11.604;2023-04-29T08:56:29;7.00;;;3.20;;
4051;SDS011;2040;50.924;11.604;2023-04-29T08:58:55;3.90;;;2.70;;
4051;SDS011;2040;50.924;11.604;2023-04-29T09:01:23;6.00;;;3.77;;
4051;SDS011;2040;50.924;11.604;2023-04-29T09:06:41;5.43;;;3.57;;
4051;SDS011;2040;50.924;11.604;2023-04-29T09:09:07;7.20;;;4.40;;
4051;SDS011;2040;50.924;11.604;2023-04-29T09:11:33;10.33;;;3.60;;
4051;SDS011;2040;50.924;11.604;2023-04-29T09:14:01;8.30;;;3.67;;
4051;SDS011;2040;50.924;11.604;2023-04-29T09:16:28;4.73;;;3.40;;
4051;SDS011;2040;50.924;11.604;2023-04-29T09:18:54;7.43;;;4.27;;
4051;SDS011;2040;50.924;11.604;2023-04-29T09:21:24;9.80;;;4.70;;
4051;SDS011;2040;50.924;11.604;2023-04-29T09:23:52;7.07;;;4.90;;
4051;SDS011;2040;50.924;11.604;2023-04-29T09:26:19;8.73;;;3.77;;
4051;SDS011;2040;50.924;11.604;2023-04-29T09:28:45;9.00;;;4.73;;
4051;SDS011;2040;50.924;11.604;2023-04-29T09:31:11;8.00;;;4.40;;
4051;SDS011;2040;50.924;11.604;2023-04-29T09:33:48;9.80;;;5.60;;
4051;SDS011;2040;50.924;11.604;2023-04-29T09:36:32;6.20;;;4.10;;
4051;SDS011;2040;50.924;11.604;2023-04-29T09:38:59;8.60;;;3.93;;
4051;SDS011;2040;50.924;11.604;2023-04-29T09:41:24;9.10;;;4.40;;
4051;SDS011;2040;50.924;11.604;2023-04-29T09:44:05;8.30;;;4.90;;
4051;SDS011;2040;50.924;11.604;2023-04-29T09:46:35;8.57;;;4.07;;
4051;SDS011;2040;50.924;11.604;2023-04-29T09:49:01;8.00;;;4.10;;
4051;SDS011;2040;50.924;11.604;2023-04-29T09:51:30;8.90;;;4.37;;
4051;SDS011;2040;50.924;11.604;2023-04-29T09:53:57;7.50;;;3.97;;
4051;SDS011;2040;50.924;11.604;2023-04-29T09:56:23;5.43;;;3.73;;
4051;SDS011;2040;50.924;11.604;2023-04-29T09:58:53;6.40;;;4.07;;
4051;SDS011;2040;50.924;11.604;2023-04-29T10:01:19;6.77;;;3.70;;
4051;SDS011;2040;50.924;11.604;2023-04-29T10:03:46;9.17;;;4.67;;
4051;SDS011;2040;50.924;11.604;2023-04-29T10:06:12;6.53;;;3.77;;
4051;SDS011;2040;50.924;11.604;2023-04-29T10:08:39;11.23;;;3.30;;
4051;SDS011;2040;50.924;11.604;2023-04-29T10:11:05;7.67;;;4.47;;
4051;SDS011;2040;50.924;11.604;2023-04-29T10:13:33;5.97;;;3.90;;
4051;SDS011;2040;50.924;11.604;2023-04-29T10:18:48;7.43;;;4.10;;
4051;SDS011;2040;50.924;11.604;2023-04-29T10:21:18;7.67;;;4.10;;
4051;SDS011;2040;50.924;11.604;2023-04-29T10:23:48;6.37;;;4.17;;
4051;SDS011;2040;50.924;11.604;2023-04-29T10:26:14;7.47;;;4.40;;
4051;SDS011;2040;50.924;11.604;2023-04-29T10:28:42;9.07;;;4.60;;
4051;SDS011;2040;50.924;11.604;2023-04-29T10:31:10;7.03;;;4.07;;
4051;SDS011;2040;50.924;11.604;2023-04-29T10:33:38;7.70;;;4.53;;
4051;SDS011;2040;50.924;11.604;2023-04-29T10:36:07;6.90;;;4.17;;
4051;SDS011;2040;50.924;11.604;2023-04-29T10:38:34;8.33;;;4.27;;
4051;SDS011;2040;50.924;11.604;2023-04-29T10:41:08;7.87;;;4.67;;
4051;SDS011;2040;50.924;11.604;2023-04-29T10:43:40;6.30;;;3.70;;
4051;SDS011;2040;50.924;11.604;2023-04-29T10:46:16;6.03;;;4.37;;
4051;SDS011;2040;50.924;11.604;2023-04-29T10:48:51;7.27;;;5.07;;
4051;SDS011;2040;50.924;11.604;2023-04-29T10:51:39;7.13;;;4.07;;
4051;SDS011;2040;50.924;11.604;2023-04-29T10:54:16;9.60;;;5.47;;
4051;SDS011;2040;50.924;11.604;2023-04-29T10:56:49;6.23;;;3.93;;
4051;SDS011;2040;50.924;11.604;2023-04-29T10:59:19;7.57;;;4.67;;
4051;SDS011;2040;50.924;11.604;2023-04-29T11:01:49;8.03;;;5.00;;
4051;SDS011;2040;50.924;11.604;2023-04-29T11:04:20;6.83;;;4.70;;
4051;SDS011;2040;50.924;11.604;2023-04-29T11:06:56;5.73;;;4.23;;
4051;SDS011;2040;50.924;11.604;2023-04-29T11:14:26;9.40;;;4.97;;
4051;SDS011;2040;50.924;11.604;2023-04-29T11:17:01;6.30;;;4.60;;
4051;SDS011;2040;50.924;11.604;2023-04-29T11:24:55;7.27;;;4.83;;
4051;SDS011;2040;50.924;11.604;2023-04-29T11:27:24;4.90;;;4.10;;
4051;SDS011;2040;50.924;11.604;2023-04-29T11:29:52;6.90;;;4.80;;
4051;SDS011;2040;50.924;11.604;2023-04-29T11:32:22;7.83;;;4.30;;
4051;SDS011;2040;50.924;11.604;2023-04-29T11:34:49;10.70;;;5.23;;
4051;SDS011;2040;50.924;11.604;2023-04-29T11:37:19;8.40;;;5.47;;
4051;SDS011;2040;50.924;11.604;2023-04-29T11:39:46;9.77;;;5.00;;
4051;SDS011;2040;50.924;11.604;2023-04-29T11:42:12;9.50;;;6.10;;
4051;SDS011;2040;50.924;11.604;2023-04-29T11:44:37;11.90;;;6.07;;
4051;SDS011;2040;50.924;11.604;2023-04-29T11:47:03;10.80;;;7.53;;
4051;SDS011;2040;50.924;11.604;2023-04-29T11:49:33;12.10;;;7.60;;
4051;SDS011;2040;50.924;11.604;2023-04-29T11:51:59;17.73;;;8.30;;
4051;SDS011;2040;50.924;11.604;2023-04-29T11:54:25;15.87;;;8.40;;
4051;SDS011;2040;50.924;11.604;2023-04-29T11:56:52;17.23;;;8.70;;
4051;SDS011;2040;50.924;11.604;2023-04-29T11:59:19;19.40;;;10.53;;
4051;SDS011;2040;50.924;11.604;2023-04-29T12:01:45;14.90;;;9.57;;
4051;SDS011;2040;50.924;11.604;2023-04-29T12:04:10;15.33;;;8.47;;
4051;SDS011;2040;50.924;11.604;2023-04-29T12:06:36;15.87;;;8.83;;
4051;SDS011;2040;50.924;11.604;2023-04-29T12:09:02;16.87;;;9.20;;
4051;SDS011;2040;50.924;11.604;2023-04-29T12:11:28;17.67;;;9.17;;
4051;SDS011;2040;50.924;11.604;2023-04-29T12:13:54;17.83;;;8.83;;
4051;SDS011;2040;50.924;11.604;2023-04-29T12:16:21;15.53;;;7.60;;
4051;SDS011;2040;50.924;11.604;2023-04-29T12:18:48;14.23;;;7.80;;
4051;SDS011;2040;50.924;11.604;2023-04-29T12:21:15;13.63;;;7.50;;
4051;SDS011;2040;50.924;11.604;2023-04-29T12:23:41;13.37;;;7.77;;
4051;SDS011;2040;50.924;11.604;2023-04-29T12:26:07;14.10;;;7.63;;
4051;SDS011;2040;50.924;11.604;2023-04-29T12:28:33;14.40;;;7.50;;
4051;SDS011;2040;50.924;11.604;2023-04-29T12:30:59;11.80;;;7.53;;
4051;SDS011;2040;50.924;11.604;2023-04-29T12:33:26;11.30;;;6.53;;
4051;SDS011;2040;50.924;11.604;2023-04-29T12:35:54;9.87;;;6.00;;
4051;SDS011;2040;50.924;11.604;2023-04-29T12:38:22;10.70;;;7.00;;
4051;SDS011;2040;50.924;11.604;2023-04-29T12:40:48;8.50;;;5.70;;
4051;SDS011;2040;50.924;11.604;2023-04-29T12:43:15;10.03;;;5.83;;
4051;SDS011;2040;50.924;11.604;2023-04-29T12:45:41;9.33;;;5.67;;
4051;SDS011;2040;50.924;11.604;2023-04-29T12:48:06;8.50;;;5.37;;
4051;SDS011;2040;50.924;11.604;2023-04-29T12:50:33;11.70;;;5.53;;
4051;SDS011;2040;50.924;11.604;2023-04-29T12:53:01;10.70;;;5.60;;
4051;SDS011;2040;50.924;11.604;2023-04-29T12:55:34;15.60;;;5.83;;
4051;SDS011;2040;50.924;11.604;2023-04-29T12:58:04;6.57;;;4.30;;
4051;SDS011;2040;50.924;11.604;2023-04-29T13:00:30;11.43;;;5.20;;
4051;SDS011;2040;50.924;11.604;2023-04-29T13:02:56;7.23;;;5.30;;
4051;SDS011;2040;50.924;11.604;2023-04-29T13:05:22;7.20;;;5.10;;
4051;SDS011;2040;50.924;11.604;2023-04-29T13:07:48;7.93;;;4.80;;
4051;SDS011;2040;50.924;11.604;2023-04-29T13:10:13;10.30;;;4.50;;
4051;SDS011;2040;50.924;11.604;2023-04-29T13:12:40;7.37;;;5.00;;
4051;SDS011;2040;50.924;11.604;2023-04-29T13:15:06;7.70;;;5.70;;
4051;SDS011;2040;50.924;11.604;2023-04-29T13:17:33;6.80;;;4.80;;
4051;SDS011;2040;50.924;11.604;2023-04-29T13:20:01;10.53;;;4.97;;
4051;SDS011;2040;50.924;11.604;2023-04-29T13:22:27;10.33;;;5.67;;
4051;SDS011;2040;50.924;11.604;2023-04-29T13:24:53;7.20;;;4.60;;
4051;SDS011;2040;50.924;11.604;2023-04-29T13:27:18;8.93;;;5.40;;
4051;SDS011;2040;50.924;11.604;2023-04-29T13:29:44;13.43;;;5.17;;
4051;SDS011;2040;50.924;11.604;2023-04-29T13:32:10;10.50;;;5.97;;
4051;SDS011;2040;50.924;11.604;2023-04-29T13:34:35;6.10;;;4.67;;
4051;SDS011;2040;50.924;11.604;2023-04-29T13:37:01;7.37;;;4.87;;
4051;SDS011;2040;50.924;11.604;2023-04-29T13:39:26;6.07;;;4.50;;
4051;SDS011;2040;50.924;11.604;2023-04-29T13:41:52;8.07;;;4.77;;
4051;SDS011;2040;50.924;11.604;2023-04-29T13:44:17;6.53;;;4.60;;
4051;SDS011;2040;50.924;11.604;2023-04-29T13:46:43;9.87;;;5.20;;
4051;SDS011;2040;50.924;11.604;2023-04-29T13:49:10;6.00;;;4.80;;
4051;SDS011;2040;50.924;11.604;2023-04-29T13:51:35;7.70;;;4.60;;
4051;SDS011;2040;50.924;11.604;2023-04-29T13:54:01;5.37;;;4.73;;
4051;SDS011;2040;50.924;11.604;2023-04-29T13:56:27;7.50;;;5.20;;
4051;SDS011;2040;50.924;11.604;2023-04-29T13:58:53;7.27;;;5.20;;
4051;SDS011;2040;50.924;11.604;2023-04-29T14:01:19;6.80;;;4.60;;
4051;SDS011;2040;50.924;11.604;2023-04-29T14:03:46;5.17;;;4.13;;
4051;SDS011;2040;50.924;11.604;2023-04-29T14:06:11;4.30;;;3.60;;
4051;SDS011;2040;50.924;11.604;2023-04-29T14:08:37;6.63;;;3.70;;
4051;SDS011;2040;50.924;11.604;2023-04-29T14:11:02;4.90;;;3.87;;
4051;SDS011;2040;50.924;11.604;2023-04-29T14:13:29;7.40;;;3.60;;
4051;SDS011;2040;50.924;11.604;2023-04-29T14:15:55;8.30;;;3.70;;
4051;SDS011;2040;50.924;11.604;2023-04-29T14:18:20;2.97;;;2.67;;
4051;SDS011;2040;50.924;11.604;2023-04-29T14:20:46;4.20;;;3.77;;
4051;SDS011;2040;50.924;11.604;2023-04-29T14:23:11;4.40;;;3.80;;
4051;SDS011;2040;50.924;11.604;2023-04-29T14:25:37;4.37;;;3.97;;
4051;SDS011;2040;50.924;11.604;2023-04-29T14:28:02;4.60;;;3.37;;
4051;SDS011;2040;50.924;11.604;2023-04-29T14:30:28;6.57;;;4.40;;
4051;SDS011;2040;50.924;11.604;2023-04-29T14:32:54;8.07;;;4.60;;
4051;SDS011;2040;50.924;11.604;2023-04-29T14:35:20;5.00;;;3.60;;
4051;SDS011;2040;50.924;11.604;2023-04-29T14:37:45;9.23;;;3.63;;
4051;SDS011;2040;50.924;11.604;2023-04-29T14:40:11;6.77;;;4.00;;
4051;SDS011;2040;50.924;11.604;2023-04-29T14:42:37;6.50;;;4.03;;
4051;SDS011;2040;50.924;11.604;2023-04-29T14:45:02;4.80;;;3.53;;
4051;SDS011;2040;50.924;11.604;2023-04-29T14:47:28;5.13;;;4.17;;
4051;SDS011;2040;50.924;11.604;2023-04-29T14:49:54;5.03;;;3.70;;
4051;SDS011;2040;50.924;11.604;2023-04-29T14:52:20;6.70;;;3.93;;
4051;SDS011;2040;50.924;11.604;2023-04-29T14:54:45;4.53;;;3.73;;
4051;SDS011;2040;50.924;11.604;2023-04-29T14:57:11;6.27;;;3.93;;
4051;SDS011;2040;50.924;11.604;2023-04-29T14:59:37;7.70;;;4.77;;
4051;SDS011;2040;50.924;11.604;2023-04-29T15:02:02;10.70;;;5.90;;
4051;SDS011;2040;50.924;11.604;2023-04-29T15:04:28;8.80;;;4.23;;
4051;SDS011;2040;50.924;11.604;2023-04-29T15:06:54;4.20;;;3.70;;
4051;SDS011;2040;50.924;11.604;2023-04-29T15:09:21;8.90;;;6.63;;
4051;SDS011;2040;50.924;11.604;2023-04-29T15:11:47;7.63;;;4.37;;
4051;SDS011;2040;50.924;11.604;2023-04-29T15:14:12;6.80;;;5.27;;
4051;SDS011;2040;50.924;11.604;2023-04-29T15:16:38;7.27;;;4.80;;